Latest Weather Observations for Fitzroy Crossing

IDW60801

Issued at 12:04 pm WST Tuesday 28 March 2017 (issued every 30 minutes, with the page automatically refreshed every 10 minutes)

About weather observations | Map of weather stations | Latest weather observations for WA | Other Formats
Station Details ID: 003093 Name: FITZROY CROSSING AERO Lat: -18.18 Lon: 125.56 Height: 114.5 m
Data from the previous 72 hours. | See also: Recent months at Fitzroy Crossing
Date/Time
WST
Temp
°C
App
Temp
°C
Dew
Point
°C
Rel
Hum
%
Delta-T
°C
Wind Press
QNH
hPa
Press
MSL
hPa
Rain since
9am
mm
Dir  Spd
km/h
Gust
km/h
Spd
kts
Gust
kts
28/12:00pm 31.9 37.0 22.6 58 6.4 CALM 0 0 0 0 1009.7 1008.8 -
28/11:30am 32.2 36.4 23.2 59 6.2 N 6 9 3 5 1010.2 1009.3 0.0
28/11:00am 31.1 35.2 23.2 63 5.5 SW 7 13 4 7 1010.6 1009.8 0.0
28/10:30am 30.9 34.9 23.8 66 4.9 SW 9 13 5 7 1011.1 1010.3 0.0
28/10:00am 30.3 34.5 22.5 63 5.3 SSW 4 9 2 5 1011.3 1010.5 0.0
28/09:30am 30.2 33.9 22.6 63 5.2 SW 7 13 4 7 1011.8 1011.0 0.0
28/09:00am 29.5 31.9 22.2 65 5.0 SSE 13 19 7 10 1011.9 1011.1 0.0
28/08:30am 29.0 31.8 23.0 70 4.1 SSE 13 20 7 11 1012.1 1011.3 0.0
28/08:00am 27.7 30.4 22.9 75 3.3 S 13 17 7 9 1012.0 1011.2 0.0
28/07:30am 27.5 29.8 22.7 75 3.3 S 15 17 8 9 1011.8 1011.0 0.0
28/07:00am 26.7 30.7 23.8 84 2.0 S 9 13 5 7 1011.5 1010.7 0.0
28/06:30am 25.5 29.8 23.7 90 1.2 SW 7 9 4 5 1011.2 1010.4 0.0
28/06:00am 25.2 29.9 23.3 89 1.3 S 4 9 2 5 1010.9 1010.1 0.0
28/05:30am 25.1 28.7 23.0 88 1.4 SSE 9 13 5 7 1010.3 1009.5 0.0
28/05:00am 25.2 28.7 22.9 87 1.6 SSE 9 13 5 7 1010.0 1009.1 0.0
28/04:30am 25.4 28.9 22.9 86 1.7 SSE 9 13 5 7 1009.8 1008.9 0.0
28/04:00am 25.5 29.8 23.6 89 1.3 SW 7 11 4 6 1009.7 1008.8 0.0
28/03:30am 25.5 29.8 23.6 89 1.3 SSW 7 9 4 5 1009.5 1008.6 0.0
28/03:00am 25.4 29.7 23.6 90 1.2 WSW 7 9 4 5 1009.5 1008.6 0.0
28/02:30am 25.6 29.6 23.8 90 1.2 WNW 9 13 5 7 1009.1 1008.2 0.0
28/02:00am 26.0 29.7 23.3 85 1.8 NNW 9 13 5 7 1009.0 1008.1 0.0
28/01:30am 26.7 30.7 22.8 79 2.7 WNW 6 13 3 7 1009.2 1008.3 0.0
28/01:00am 26.7 29.8 22.1 76 3.1 NE 9 13 5 7 1009.7 1008.8 0.0
28/12:30am 27.1 30.4 22.5 76 3.1 NE 9 13 5 7 1010.1 1009.2 0.0
28/12:00am 27.4 30.8 23.4 79 2.7 E 11 15 6 8 1010.6 1009.8 0.0
 
Date/Time
WST
Temp
°C
App
Temp
°C
Dew
Point
°C
Rel
Hum
%
Delta-T
°C
Wind Press
QNH
hPa
Press
MSL
hPa
Rain since
9am
mm
Dir  Spd
km/h
Gust
km/h
Spd
kts
Gust
kts
27/11:30pm 27.6 33.3 24.4 83 2.2 SE 2 7 1 4 1010.5 1009.7 0.0
27/11:00pm 27.7 33.0 24.3 82 2.4 E 4 7 2 4 1010.4 1009.6 0.0
27/10:30pm 27.9 32.7 24.5 82 2.4 NE 7 11 4 6 1010.8 1010.0 0.0
27/10:00pm 28.3 34.4 24.5 80 2.7 CALM 0 0 0 0 1010.3 1009.5 0.0
27/09:30pm 28.3 34.4 24.5 80 2.7 CALM 0 0 0 0 1010.4 1009.6 0.0
27/09:00pm 28.4 34.4 24.2 78 2.9 CALM 0 0 0 0 1010.1 1009.2 0.0
27/08:30pm 28.3 33.1 24.1 78 2.9 E 6 7 3 4 1010.1 1009.2 0.0
27/08:00pm 28.3 33.2 24.3 79 2.8 E 6 7 3 4 1010.0 1009.1 0.0
27/07:30pm 28.5 34.3 23.9 76 3.2 CALM 0 0 0 0 1009.7 1008.8 0.0
27/07:00pm 28.7 33.0 23.6 74 3.5 ENE 7 11 4 6 1008.9 1008.0 0.0
27/06:30pm 29.4 34.7 24.3 74 3.6 ESE 4 9 2 5 1008.8 1007.9 0.0
27/06:00pm 30.2 36.1 24.1 70 4.3 CALM 0 0 0 0 1008.6 1007.7 0.0
27/05:30pm 31.3 35.5 23.1 61 5.7 SE 6 7 3 4 1008.0 1007.1 0.0
27/05:00pm 32.1 35.1 21.9 54 7.0 SE 9 11 5 6 1007.7 1006.8 0.0
27/04:30pm 33.2 36.8 22.3 52 7.5 E 7 11 4 6 1007.7 1006.8 0.0
27/04:00pm 33.2 36.9 22.6 53 7.3 ESE 7 11 4 6 1007.7 1006.8 0.0
27/03:30pm 33.8 37.3 22.9 53 7.5 E 9 13 5 7 1007.6 1006.7 0.0
27/03:00pm 33.4 36.9 22.2 52 7.7 E 7 13 4 7 1007.5 1006.6 0.0
27/02:30pm 34.2 38.1 23.6 54 7.4 SE 9 15 5 8 1007.9 1007.0 0.0
27/02:00pm 33.2 37.3 23.2 55 7.0 E 7 15 4 8 1008.0 1007.1 0.0
27/01:30pm 33.4 37.2 23.4 55 7.0 E 9 15 5 8 1008.5 1007.6 0.0
27/01:00pm 32.7 34.8 22.5 55 7.0 ESE 15 20 8 11 1008.9 1008.0 0.0
27/12:30pm 33.4 35.9 22.5 52 7.5 ENE 13 20 7 11 1009.3 1008.4 0.0
27/12:00pm 32.6 36.0 23.3 58 6.5 E 11 17 6 9 1009.9 1009.0 0.0
27/11:30am 32.0 34.5 22.4 57 6.6 ESE 13 19 7 10 1010.3 1009.5 0.0
27/11:00am 31.3 33.7 22.3 58 6.2 NE 13 20 7 11 1010.7 1009.9 0.0
27/10:30am 31.4 34.1 23.5 63 5.5 ENE 15 24 8 13 1011.5 1010.7 0.0
27/10:00am 30.0 33.2 22.4 63 5.2 ENE 9 15 5 8 1012.0 1011.2 0.0
27/09:30am 29.4 33.0 23.1 69 4.3 E 9 13 5 7 1012.2 1011.4 0.0
27/09:00am 28.5 32.7 23.2 73 3.6 E 6 13 3 7 1012.4 1011.6 8.0
27/08:30am 27.1 31.2 23.3 80 2.6 SW 7 13 4 7 1012.3 1011.5 8.0
27/08:00am 26.7 29.5 23.6 83 2.1 SSW 15 20 8 11 1012.6 1011.8 8.0
27/07:30am 25.6 28.5 23.8 90 1.2 S 15 20 8 11 1012.8 1012.0 8.0
27/07:00am 24.7 27.9 23.1 91 1.1 SSW 11 15 6 8 1012.7 1011.9 8.0
27/06:30am 24.3 26.7 22.9 92 0.9 S 15 20 8 11 1012.8 1012.0 8.0
27/06:00am 24.4 26.4 23.0 92 0.9 SSE 17 26 9 14 1012.4 1011.6 8.0
27/05:30am 24.7 29.0 23.7 94 0.7 SSW 7 13 4 7 1011.5 1010.7 8.0
27/05:00am 24.3 28.3 23.1 93 0.8 NW 7 9 4 5 1011.0 1010.2 8.0
27/04:30am 24.4 27.1 23.4 94 0.7 WNW 15 19 8 10 1010.6 1009.8 8.0
27/04:00am 24.3 27.5 23.1 93 0.8 W 11 15 6 8 1010.7 1009.9 7.6
27/03:30am 24.4 29.2 22.8 91 1.1 S 2 9 1 5 1011.0 1010.2 5.4
27/03:00am 24.5 27.1 22.6 89 1.3 ESE 13 19 7 10 1011.0 1010.2 2.4
27/02:30am 26.1 29.4 23.2 84 2.0 S 11 15 6 8 1011.0 1010.2 0.0
27/02:00am 26.1 30.5 23.4 85 1.9 WSW 6 7 3 4 1010.8 1010.0 0.0
27/01:30am 26.1 30.3 23.4 85 1.8 WSW 7 9 4 5 1010.8 1010.0 0.0
27/01:00am 26.4 30.5 22.9 81 2.4 SW 6 9 3 5 1010.9 1010.1 0.0
27/12:30am 26.7 30.5 22.8 79 2.7 S 7 15 4 8 1011.3 1010.5 0.0
27/12:00am 26.9 30.2 23.2 80 2.5 WSW 11 15 6 8 1010.6 1009.8 0.0
 
Date/Time
WST
Temp
°C
App
Temp
°C
Dew
Point
°C
Rel
Hum
%
Delta-T
°C
Wind Press
QNH
hPa
Press
MSL
hPa
Rain since
9am
mm
Dir  Spd
km/h
Gust
km/h
Spd
kts
Gust
kts
26/11:30pm 26.8 30.6 23.5 82 2.3 SW 9 13 5 7 1010.9 1010.1 0.0
26/11:00pm 26.6 30.4 23.5 83 2.1 NW 9 17 5 9 1010.6 1009.8 0.0
26/10:30pm 26.6 30.6 23.7 84 2.0 NNE 9 13 5 7 1010.4 1009.6 0.0
26/10:00pm 26.6 30.6 23.7 84 2.0 NNW 9 11 5 6 1010.3 1009.5 0.0
26/09:30pm 26.5 30.7 23.2 82 2.3 NNW 6 9 3 5 1009.9 1009.0 0.0
26/09:00pm 26.6 30.2 23.1 81 2.4 NNW 9 11 5 6 1010.3 1009.5 0.0
26/08:30pm 26.7 30.5 23.4 82 2.3 NNW 9 13 5 7 1010.0 1009.1 0.0
26/08:00pm 26.7 30.4 23.2 81 2.4 NW 9 11 5 6 1009.8 1008.9 0.0
26/07:30pm 27.0 30.6 22.4 76 3.1 NE 7 9 4 5 1009.1 1008.2 0.0
26/07:00pm 27.2 29.9 22.2 74 3.4 SSE 11 17 6 9 1008.4 1007.5 0.0
26/06:30pm 27.6 30.3 22.1 72 3.7 SE 11 15 6 8 1008.2 1007.3 0.0
26/06:00pm 28.1 29.8 21.6 68 4.4 E 15 20 8 11 1007.8 1006.9 0.0
26/05:30pm 28.7 29.5 22.4 68 4.3 NE 22 35 12 19 1007.5 1006.6 0.0
26/05:10pm 31.2 32.1 20.8 54 7.0 ENE 17 39 9 21 1007.1 1006.2 0.0
26/05:00pm 34.1 37.8 22.2 50 8.2 E 6 9 3 5 1006.5 1005.6 0.0
26/04:30pm 36.3 40.7 21.3 41 10.2 CALM 0 7 0 4 1006.1 1005.2 0.0
26/04:00pm 35.4 38.0 20.5 41 10.1 ENE 7 15 4 8 1006.0 1005.1 0.0
26/03:30pm 36.3 39.5 21.7 42 10.0 S 7 11 4 6 1006.2 1005.3 0.0
26/03:00pm 36.4 39.5 21.0 40 10.5 SSE 6 11 3 6 1006.0 1005.1 0.0
26/02:30pm 36.2 39.6 21.6 42 10.0 NNE 6 11 3 6 1006.1 1005.2 0.0
26/02:00pm 35.3 38.1 21.6 45 9.4 SSE 9 11 5 6 1006.5 1005.6 0.0
26/01:30pm 35.6 39.5 22.5 46 9.1 SSE 6 13 3 7 1006.7 1005.8 0.0
26/01:00pm 34.9 39.0 22.9 49 8.3 NE 6 11 3 6 1007.0 1006.1 0.0
26/12:30pm 33.2 36.2 22.0 51 7.7 E 9 17 5 9 1007.4 1006.5 0.0
26/12:00pm 34.0 37.5 22.1 50 8.2 SSE 7 13 4 7 1007.8 1006.9 0.0
26/11:30am 33.9 36.9 22.0 49 8.2 SE 9 11 5 6 1008.3 1007.4 0.0
26/11:00am 33.0 36.0 22.7 54 7.1 SE 11 17 6 9 1008.9 1008.0 0.0
26/10:30am 32.5 35.8 22.6 56 6.8 ESE 9 11 5 6 1009.4 1008.5 0.0
26/10:00am 31.9 35.6 22.6 58 6.4 SSW 7 11 4 6 1009.8 1008.9 0.0
26/09:30am 30.9 34.6 22.5 61 5.8 SW 7 13 4 7 1010.1 1009.2 0.0
26/09:00am 30.3 34.2 23.0 65 5.0 SE 7 13 4 7 1010.2 1009.3 1.6
26/08:30am 29.5 34.2 22.7 67 4.7 NE 2 9 1 5 1010.7 1009.9 1.6
26/08:00am 28.8 32.3 22.1 67 4.5 SE 7 11 4 6 1010.6 1009.8 1.6
26/07:30am 27.8 32.0 23.2 76 3.2 ESE 6 9 3 5 1010.3 1009.5 1.6
26/07:00am 26.3 30.0 23.2 83 2.1 SE 9 11 5 6 1009.8 1008.9 1.6
26/06:30am 25.1 29.2 23.0 88 1.4 ESE 6 7 3 4 1009.2 1008.3 1.6
26/06:00am 23.8 27.7 22.6 93 0.8 ESE 6 7 3 4 1009.0 1008.1 1.6
26/05:30am 23.7 27.4 22.3 92 0.9 E 6 7 3 4 1008.7 1007.8 1.6
26/05:00am 23.6 27.1 22.2 92 0.9 ENE 7 9 4 5 1008.7 1007.8 1.6
26/04:30am 23.7 28.6 22.3 92 0.9 CALM 0 0 0 0 1008.5 1007.6 1.6
26/04:00am 23.8 28.6 22.1 90 1.1 CALM 0 0 0 0 1008.4 1007.5 1.6
26/03:30am 23.9 28.7 22.2 90 1.1 CALM 0 0 0 0 1008.3 1007.4 1.6
26/03:00am 23.9 28.7 22.2 90 1.1 CALM 0 0 0 0 1008.2 1007.3 1.6
26/02:30am 23.9 28.8 22.3 91 1.1 CALM 0 0 0 0 1008.0 1007.1 1.6
26/02:00am 23.8 27.5 22.2 91 1.1 WSW 6 7 3 4 1008.3 1007.4 1.6
26/01:30am 24.0 27.3 21.9 88 1.4 NNW 7 9 4 5 1008.4 1007.5 1.6
26/01:00am 23.9 27.2 21.8 88 1.4 ENE 7 11 4 6 1008.4 1007.5 1.6
26/12:30am 23.9 27.4 21.8 88 1.4 NE 6 9 3 5 1008.7 1007.8 1.6
26/12:00am 23.9 27.1 21.6 87 1.5 NE 7 11 4 6 1008.8 1007.9 1.6
 
Date/Time
WST
Temp
°C
App
Temp
°C
Dew
Point
°C
Rel
Hum
%
Delta-T
°C
Wind Press
QNH
hPa
Press
MSL
hPa
Rain since
9am
mm
Dir  Spd
km/h
Gust
km/h
Spd
kts
Gust
kts
25/11:30pm 24.4 27.2 21.5 84 1.9 NNW 9 11 5 6 1008.4 1007.5 1.6
25/11:00pm 25.0 27.4 20.9 78 2.7 NNW 9 13 5 7 1008.3 1007.4 1.6
25/10:30pm 25.2 29.3 21.5 80 2.5 ESE 2 6 1 3 1008.7 1007.8 1.6
25/10:00pm 25.6 27.9 20.6 74 3.3 N 9 11 5 6 1008.9 1008.0 1.6
25/09:30pm 26.4 28.6 21.8 76 3.1 NNE 13 17 7 9 1010.2 1009.3 1.6
25/09:00pm 26.0 29.2 23.1 84 2.0 NE 11 19 6 10 1010.5 1009.7 1.6
25/08:30pm 25.5 29.1 23.0 86 1.7 N 9 15 5 8 1009.7 1008.8 1.6
25/08:00pm 25.7 29.3 23.0 85 1.8 WNW 9 13 5 7 1008.6 1007.7 1.6
25/07:30pm 26.0 28.4 22.3 80 2.5 NNW 13 22 7 12 1009.1 1008.2 1.4
25/07:00pm 26.1 28.1 21.5 76 3.1 NNW 13 17 7 9 1008.3 1007.4 1.4
25/06:30pm 26.1 26.5 20.7 72 3.6 WNW 19 20 10 11 1008.6 1007.7 1.4
25/06:00pm 26.1 27.2 20.4 71 3.8 S 15 22 8 12 1007.2 1006.3 1.4
25/05:30pm 27.7 27.6 20.0 63 5.1 ESE 20 37 11 20 1006.8 1005.9 1.4
25/05:22pm 26.6 28.8 21.8 75 3.2 WSW 13 35 7 19 1007.1 1006.2 1.4
25/05:00pm 26.2 28.9 22.1 78 2.8 WNW 11 15 6 8 1005.8 1004.9 1.4
25/04:30pm 25.8 26.7 20.8 74 3.3 NNW 17 20 9 11 1005.0 1004.1 1.4
25/04:00pm 27.3 26.9 20.9 68 4.3 N 24 35 13 19 1005.6 1004.7 1.2
25/03:44pm 29.1 28.0 20.3 59 5.8 N 26 57 14 31 1005.7 1004.8 0.0
25/03:40pm 31.7 32.6 20.0 50 7.8 SE 15 56 8 30 1005.5 1004.6 0.0
25/03:30pm 35.4 39.6 23.4 50 8.4 SSE 7 15 4 8 1004.4 1003.6 0.0
25/03:00pm 36.5 39.5 22.6 44 9.7 S 11 15 6 8 1004.3 1003.5 0.0
25/02:30pm 36.2 40.2 22.0 43 9.8 SSW 4 9 2 5 1004.8 1003.9 0.0
25/02:00pm 36.4 39.7 21.8 42 10.1 NNW 7 15 4 8 1005.4 1004.5 0.0
25/01:30pm 35.7 38.3 21.2 43 9.9 N 9 13 5 7 1006.1 1005.2 0.0
25/01:00pm 35.9 38.4 22.5 46 9.3 N 13 20 7 11 1006.5 1005.6 0.0
25/12:30pm 35.2 38.7 22.9 49 8.5 NW 9 15 5 8 1006.7 1005.8 0.0

Other Formats:

Comma delimited format used in spreadsheet applications
http://www.bom.gov.au/fwo/IDW60801/IDW60801.94206.axf

JavaScript Object Notation format (JSON) in row-major order
http://www.bom.gov.au/fwo/IDW60801/IDW60801.94206.json